createdAt,value
2018-04-30T00:01:27.579Z,6.67
2018-04-30T00:03:55.251Z,6.40
2018-04-30T00:06:22.865Z,6.90
2018-04-30T00:08:50.536Z,6.30
2018-04-30T00:11:18.193Z,6.37
2018-04-30T00:13:45.814Z,5.77
2018-04-30T00:16:13.524Z,6.57
2018-04-30T00:18:41.163Z,6.40
2018-04-30T00:21:08.837Z,5.80
2018-04-30T00:23:36.450Z,5.50
2018-04-30T00:26:04.067Z,6.17
2018-04-30T00:28:31.715Z,6.10
2018-04-30T00:30:59.392Z,6.17
2018-04-30T00:33:27.055Z,6.33
2018-04-30T00:35:54.670Z,5.73
2018-04-30T00:38:22.322Z,5.90
2018-04-30T00:40:49.977Z,6.30
2018-04-30T00:43:17.644Z,6.40
2018-04-30T00:45:45.360Z,6.47
2018-04-30T00:48:13.020Z,7.10
2018-04-30T00:50:40.747Z,6.67
2018-04-30T00:53:08.413Z,6.33
2018-04-30T00:55:36.520Z,6.00
2018-04-30T00:58:04.125Z,6.13
2018-04-30T01:00:31.918Z,5.57
2018-04-30T01:02:59.539Z,6.13
2018-04-30T01:05:27.167Z,6.10
2018-04-30T01:07:54.836Z,5.40
2018-04-30T01:10:22.558Z,6.40
2018-04-30T01:12:50.166Z,7.17
2018-04-30T01:15:17.815Z,5.20
2018-04-30T01:17:45.444Z,6.43
2018-04-30T01:20:13.095Z,5.60
2018-04-30T01:22:40.724Z,5.20
2018-04-30T01:25:08.341Z,6.10
2018-04-30T01:27:36.005Z,5.73
2018-04-30T01:30:03.644Z,5.60
2018-04-30T01:32:31.332Z,5.00
2018-04-30T01:34:59.055Z,4.93
2018-04-30T01:37:26.747Z,5.27
2018-04-30T01:39:54.824Z,6.20
2018-04-30T01:42:22.531Z,5.50
2018-04-30T01:44:50.114Z,5.97
2018-04-30T01:47:17.734Z,5.07
2018-04-30T01:49:45.385Z,7.90
2018-04-30T01:52:13.040Z,5.30
2018-04-30T01:54:40.877Z,5.73
2018-04-30T01:57:08.549Z,5.03
2018-04-30T01:59:36.436Z,5.17
2018-04-30T02:02:04.195Z,6.23
2018-04-30T02:04:31.882Z,5.40
2018-04-30T02:06:59.549Z,5.27
2018-04-30T02:09:27.193Z,5.77
2018-04-30T02:11:54.848Z,5.00
2018-04-30T02:14:22.456Z,4.60
2018-04-30T02:16:50.111Z,5.43
2018-04-30T02:19:17.758Z,6.07
2018-04-30T02:21:45.399Z,4.60
2018-04-30T02:24:13.017Z,5.10
2018-04-30T02:26:40.709Z,5.00
2018-04-30T02:29:08.321Z,5.27
2018-04-30T02:31:36.013Z,4.50
2018-04-30T02:34:03.717Z,5.63
2018-04-30T02:36:31.331Z,6.23
2018-04-30T02:38:59.041Z,5.57
2018-04-30T02:41:26.713Z,4.37
2018-04-30T02:43:54.403Z,5.43
2018-04-30T02:46:22.065Z,4.43
2018-04-30T02:48:49.712Z,5.40
2018-04-30T02:51:17.401Z,4.13
2018-04-30T02:53:45.003Z,5.97
2018-04-30T02:56:13.734Z,5.23
2018-04-30T02:58:41.341Z,5.33
2018-04-30T03:01:08.983Z,5.03
2018-04-30T03:03:36.633Z,5.07
2018-04-30T03:06:04.283Z,6.47
2018-04-30T03:08:31.939Z,5.00
2018-04-30T03:10:59.546Z,4.57
2018-04-30T03:13:27.203Z,4.73
2018-04-30T03:15:54.856Z,5.03
2018-04-30T03:18:22.469Z,4.33
2018-04-30T03:20:50.087Z,4.90
2018-04-30T03:23:17.751Z,4.87
2018-04-30T03:25:45.387Z,4.80
2018-04-30T03:28:13.098Z,5.10
2018-04-30T03:30:40.771Z,4.43
2018-04-30T03:33:08.461Z,4.13
2018-04-30T03:35:36.079Z,4.03
2018-04-30T03:38:03.684Z,4.63
2018-04-30T03:40:31.387Z,4.67
2018-04-30T03:42:59.054Z,5.60
2018-04-30T03:45:26.697Z,5.00
2018-04-30T03:47:54.430Z,4.30
2018-04-30T03:50:22.035Z,4.60
2018-04-30T03:52:49.744Z,5.20
2018-04-30T03:55:17.438Z,6.13
2018-04-30T03:57:45.123Z,4.73
2018-04-30T04:00:24.612Z,4.03
2018-04-30T04:03:04.036Z,5.80
2018-04-30T04:05:43.374Z,4.40
2018-04-30T04:08:11.238Z,4.10
2018-04-30T04:10:38.900Z,4.73
2018-04-30T04:13:06.671Z,4.50
2018-04-30T04:15:34.352Z,4.70
2018-04-30T04:18:02.606Z,4.77
2018-04-30T04:20:30.216Z,4.80
2018-04-30T04:22:57.935Z,5.80
2018-04-30T04:25:25.662Z,4.40
2018-04-30T04:27:53.388Z,5.03
2018-04-30T04:30:21.005Z,5.40
2018-04-30T04:32:48.718Z,5.53
2018-04-30T04:35:16.381Z,4.50
2018-04-30T04:37:44.966Z,5.50
2018-04-30T04:40:14.726Z,4.67
2018-04-30T04:42:42.384Z,4.30
2018-04-30T04:45:09.965Z,3.83
2018-04-30T04:47:37.618Z,4.67
2018-04-30T04:50:05.279Z,4.97
2018-04-30T04:52:32.911Z,5.40
2018-04-30T04:55:00.555Z,5.60
2018-04-30T04:57:28.214Z,4.20
2018-04-30T04:59:55.823Z,6.17
2018-04-30T05:02:23.625Z,4.37
2018-04-30T05:04:51.164Z,5.00
2018-04-30T05:07:19.754Z,5.80
2018-04-30T05:09:47.397Z,4.90
2018-04-30T05:12:15.174Z,4.90
2018-04-30T05:14:43.269Z,4.47
2018-04-30T05:17:11.123Z,4.53
2018-04-30T05:19:38.733Z,5.30
2018-04-30T05:22:06.548Z,4.70
2018-04-30T05:24:34.310Z,6.00
2018-04-30T05:27:02.353Z,4.67
2018-04-30T05:29:29.956Z,4.43
2018-04-30T05:31:57.693Z,5.50
2018-04-30T05:34:25.405Z,4.77
2018-04-30T05:36:53.341Z,4.93
2018-04-30T05:39:21.206Z,4.57
2018-04-30T05:41:48.901Z,3.97
2018-04-30T05:44:16.532Z,4.63
2018-04-30T05:46:44.405Z,4.80
2018-04-30T05:49:12.209Z,5.53
2018-04-30T05:51:39.871Z,6.60
2018-04-30T05:54:07.568Z,4.57
2018-04-30T05:56:35.239Z,4.57
2018-04-30T05:59:03.001Z,5.73
2018-04-30T06:01:30.652Z,4.90
2018-04-30T06:03:58.274Z,4.37
2018-04-30T06:06:25.937Z,4.50
2018-04-30T06:08:53.570Z,4.60
2018-04-30T06:11:21.517Z,6.07
2018-04-30T06:13:49.386Z,4.60
2018-04-30T06:16:16.988Z,4.53
2018-04-30T06:18:45.530Z,5.50
2018-04-30T06:21:13.831Z,5.90
2018-04-30T06:23:41.600Z,4.80
2018-04-30T06:26:09.339Z,4.60
2018-04-30T06:28:36.956Z,5.20
2018-04-30T06:31:05.703Z,5.50
2018-04-30T06:33:34.056Z,5.60
2018-04-30T06:36:01.838Z,5.27
2018-04-30T06:38:29.816Z,5.17
2018-04-30T06:40:57.477Z,4.67
2018-04-30T06:43:25.331Z,5.13
2018-04-30T06:45:53.259Z,4.70
2018-04-30T06:48:20.960Z,4.87
2018-04-30T06:50:48.637Z,5.80
2018-04-30T06:53:16.392Z,5.20
2018-04-30T06:55:44.039Z,4.87
2018-04-30T06:58:11.821Z,4.23
2018-04-30T07:00:39.903Z,4.80
2018-04-30T07:03:07.599Z,3.47
2018-04-30T07:05:35.219Z,3.90
2018-04-30T07:08:03.545Z,4.23
2018-04-30T07:10:31.205Z,4.17
2018-04-30T07:12:58.834Z,4.40
2018-04-30T07:15:26.486Z,3.83
2018-04-30T07:17:54.154Z,3.13
2018-04-30T07:20:21.769Z,3.47
2018-04-30T07:22:49.584Z,4.10
2018-04-30T07:25:17.332Z,4.40
2018-04-30T07:27:45.227Z,4.20
2018-04-30T07:30:13.065Z,3.90
2018-04-30T07:32:41.101Z,3.83
2018-04-30T07:35:09.233Z,4.03
2018-04-30T07:37:37.081Z,3.60
2018-04-30T07:40:04.874Z,5.07
2018-04-30T07:42:33.335Z,3.67
2018-04-30T07:45:01.084Z,3.43
2018-04-30T07:47:29.540Z,4.33
2018-04-30T07:49:57.194Z,3.83
2018-04-30T07:52:25.033Z,3.07
2018-04-30T07:54:53.360Z,3.90
2018-04-30T07:57:21.241Z,4.57
2018-04-30T07:59:49.212Z,3.70
2018-04-30T08:02:16.833Z,2.70
2018-04-30T08:04:44.927Z,3.83
2018-04-30T08:07:12.936Z,3.53
2018-04-30T08:09:41.704Z,3.50
2018-04-30T08:12:09.912Z,3.43
2018-04-30T08:14:37.580Z,2.80
2018-04-30T08:17:05.169Z,2.67
2018-04-30T08:19:33.033Z,2.73
2018-04-30T08:22:00.628Z,2.57
2018-04-30T08:24:28.314Z,2.40
2018-04-30T08:26:57.112Z,2.07
2018-04-30T08:29:25.271Z,2.83
2018-04-30T08:31:53.176Z,2.03
2018-04-30T08:34:21.301Z,2.47
2018-04-30T08:36:48.975Z,4.83
2018-04-30T08:39:16.587Z,2.20
2018-04-30T08:41:44.240Z,1.93
2018-04-30T08:44:12.253Z,2.80
2018-04-30T08:46:39.944Z,2.83
2018-04-30T08:49:07.694Z,3.17
2018-04-30T08:51:35.383Z,2.70
2018-04-30T08:54:03.324Z,2.80
2018-04-30T08:56:31.181Z,2.53
2018-04-30T08:58:59.268Z,2.70
2018-04-30T09:01:27.132Z,2.07
2018-04-30T09:03:55.512Z,2.30
2018-04-30T09:06:23.439Z,2.40
2018-04-30T09:08:51.078Z,1.70
2018-04-30T09:11:18.953Z,2.53
2018-04-30T09:13:46.805Z,3.07
2018-04-30T09:16:14.543Z,2.43
2018-04-30T09:18:42.414Z,1.90
2018-04-30T09:21:10.560Z,2.73
2018-04-30T09:23:38.229Z,2.90
2018-04-30T09:26:06.927Z,2.60
2018-04-30T09:28:34.796Z,2.33
2018-04-30T09:31:02.458Z,2.87
2018-04-30T09:33:30.183Z,2.97
2018-04-30T09:35:57.974Z,2.27
2018-04-30T09:38:25.635Z,2.30
2018-04-30T09:40:53.290Z,2.27
2018-04-30T09:43:20.923Z,3.10
2018-04-30T09:45:49.193Z,2.20
2018-04-30T09:48:17.013Z,2.33
2018-04-30T09:50:44.702Z,3.47
2018-04-30T09:53:12.342Z,3.00
2018-04-30T09:55:40.017Z,3.03
2018-04-30T09:58:07.664Z,2.77
2018-04-30T10:00:35.299Z,2.63
2018-04-30T10:03:02.923Z,3.10
2018-04-30T10:05:30.638Z,2.80
2018-04-30T10:07:58.822Z,2.80
2018-04-30T10:10:26.492Z,3.50
2018-04-30T10:12:54.174Z,2.50
2018-04-30T10:15:21.818Z,2.53
2018-04-30T10:17:49.704Z,2.47
2018-04-30T10:20:17.444Z,2.53
2018-04-30T10:22:45.068Z,3.93
2018-04-30T10:25:13.006Z,2.20
2018-04-30T10:27:40.587Z,2.63
2018-04-30T10:30:08.532Z,3.10
2018-04-30T10:32:36.165Z,2.87
2018-04-30T10:35:04.295Z,1.90
2018-04-30T10:37:32.110Z,2.53
2018-04-30T10:39:59.701Z,1.93
2018-04-30T10:42:27.346Z,3.60
2018-04-30T10:44:55.185Z,3.03
2018-04-30T10:47:23.232Z,2.20
2018-04-30T10:49:50.829Z,2.40
2018-04-30T10:52:18.427Z,2.40
2018-04-30T10:54:46.063Z,2.60
2018-04-30T10:57:13.697Z,2.13
2018-04-30T10:59:41.359Z,2.30
2018-04-30T11:02:08.997Z,2.47
2018-04-30T11:04:36.705Z,3.33
2018-04-30T11:07:04.347Z,3.37
2018-04-30T11:09:32.023Z,4.40
2018-04-30T11:12:00.689Z,2.30
2018-04-30T11:14:28.338Z,2.00
2018-04-30T11:16:56.093Z,3.90
2018-04-30T11:19:23.705Z,2.67
2018-04-30T11:21:51.354Z,2.27
2018-04-30T11:24:18.963Z,2.60
2018-04-30T11:26:46.674Z,3.97
2018-04-30T11:29:14.289Z,2.77
2018-04-30T11:31:41.955Z,2.70
2018-04-30T11:34:09.585Z,2.53
2018-04-30T11:36:37.308Z,2.30
2018-04-30T11:39:05.126Z,1.67
2018-04-30T11:41:32.950Z,1.90
2018-04-30T11:44:00.841Z,2.37
2018-04-30T11:46:28.506Z,2.27
2018-04-30T11:48:56.379Z,2.40
2018-04-30T11:51:24.059Z,2.60
2018-04-30T11:53:51.688Z,2.70
2018-04-30T11:56:19.366Z,3.37
2018-04-30T11:58:47.056Z,2.30
2018-04-30T12:01:14.818Z,2.67
2018-04-30T12:03:42.495Z,2.27
2018-04-30T12:06:10.137Z,1.93
2018-04-30T12:08:37.839Z,2.63
2018-04-30T12:11:05.545Z,1.80
2018-04-30T12:13:33.152Z,2.40
2018-04-30T12:16:00.778Z,3.00
2018-04-30T12:18:28.533Z,2.60
2018-04-30T12:20:56.876Z,2.90
2018-04-30T12:23:24.945Z,2.17
2018-04-30T12:25:53.511Z,2.20
2018-04-30T12:28:21.283Z,2.30
2018-04-30T12:30:48.971Z,1.73
2018-04-30T12:33:16.661Z,2.57
2018-04-30T12:35:44.457Z,2.20
2018-04-30T12:38:12.101Z,2.87
2018-04-30T12:40:39.764Z,2.03
2018-04-30T12:43:07.409Z,2.47
2018-04-30T12:45:35.093Z,1.50
2018-04-30T12:48:02.946Z,2.50
2018-04-30T12:50:30.800Z,2.20
2018-04-30T12:52:59.433Z,2.50
2018-04-30T12:55:27.305Z,1.87
2018-04-30T12:57:55.100Z,2.30
2018-04-30T13:00:22.859Z,3.80
2018-04-30T13:02:50.683Z,1.90
2018-04-30T13:05:19.043Z,2.20
2018-04-30T13:07:46.682Z,2.43
2018-04-30T13:10:14.341Z,2.07
2018-04-30T13:12:42.017Z,2.40
2018-04-30T13:15:09.708Z,2.03
2018-04-30T13:17:37.440Z,2.77
2018-04-30T13:20:05.169Z,4.47
2018-04-30T13:22:32.807Z,2.13
2018-04-30T13:25:00.520Z,2.40
2018-04-30T13:27:28.124Z,2.03
2018-04-30T13:29:55.798Z,1.73
2018-04-30T13:32:23.429Z,2.30
2018-04-30T13:34:51.057Z,2.40
2018-04-30T13:37:18.750Z,2.07
2018-04-30T13:39:47.181Z,2.77
2018-04-30T13:42:14.882Z,1.80
2018-04-30T13:44:42.538Z,2.13
2018-04-30T13:47:10.229Z,2.00
2018-04-30T13:49:37.889Z,1.90
2018-04-30T13:52:05.596Z,2.10
2018-04-30T13:54:33.495Z,2.17
2018-04-30T13:57:01.163Z,2.10
2018-04-30T13:59:28.861Z,1.80
2018-04-30T14:01:56.521Z,1.53
2018-04-30T14:04:24.224Z,1.83
2018-04-30T14:06:51.902Z,1.30
2018-04-30T14:09:19.553Z,1.30
2018-04-30T14:11:47.205Z,2.10
2018-04-30T14:14:14.919Z,1.73
2018-04-30T14:16:42.668Z,1.70
2018-04-30T14:19:10.303Z,1.80
2018-04-30T14:21:38.442Z,1.80
2018-04-30T14:24:06.158Z,1.97
2018-04-30T14:26:33.846Z,1.70
2018-04-30T14:29:01.524Z,2.70
2018-04-30T14:31:29.190Z,1.47
2018-04-30T14:33:56.817Z,2.00
2018-04-30T14:36:24.606Z,1.43
2018-04-30T14:38:52.620Z,2.17
2018-04-30T14:41:20.642Z,1.80
2018-04-30T14:43:48.359Z,1.40
2018-04-30T14:46:17.581Z,2.10
2018-04-30T14:48:45.402Z,1.47
2018-04-30T14:51:14.377Z,1.77
2018-04-30T14:53:43.370Z,1.53
2018-04-30T14:56:11.093Z,1.87
2018-04-30T14:58:39.606Z,2.10
2018-04-30T15:01:07.647Z,1.10
2018-04-30T15:03:35.596Z,1.43
2018-04-30T15:06:03.534Z,1.40
2018-04-30T15:08:31.403Z,1.13
2018-04-30T15:10:59.098Z,2.07
2018-04-30T15:13:26.967Z,1.20
2018-04-30T15:15:54.647Z,1.60
2018-04-30T15:18:23.106Z,1.10
2018-04-30T15:20:50.770Z,1.20
2018-04-30T15:23:20.018Z,1.67
2018-04-30T15:25:47.961Z,1.23
2018-04-30T15:28:16.219Z,1.47
2018-04-30T15:30:43.879Z,1.10
2018-04-30T15:33:11.676Z,1.40
2018-04-30T15:35:39.857Z,0.83
2018-04-30T15:38:08.658Z,1.63
2018-04-30T15:40:36.298Z,1.43
2018-04-30T15:43:04.019Z,1.10
2018-04-30T15:45:31.771Z,1.63
2018-04-30T15:47:59.931Z,0.90
2018-04-30T15:50:27.581Z,1.20
2018-04-30T15:52:55.214Z,1.00
2018-04-30T15:55:22.863Z,0.90
2018-04-30T15:57:50.511Z,1.10
2018-04-30T16:00:18.167Z,1.03
2018-04-30T16:02:45.792Z,0.70
2018-04-30T16:05:13.494Z,0.53
2018-04-30T16:07:41.159Z,0.90
2018-04-30T16:10:10.036Z,0.70
2018-04-30T16:12:37.700Z,1.50
2018-04-30T16:15:05.373Z,1.40
2018-04-30T16:17:33.073Z,1.10
2018-04-30T16:20:00.729Z,1.33
2018-04-30T16:22:28.350Z,0.70
2018-04-30T16:24:56.058Z,0.80
2018-04-30T16:27:24.684Z,1.07
2018-04-30T16:29:52.379Z,1.07
2018-04-30T16:32:20.082Z,1.00
2018-04-30T16:34:47.699Z,1.33
2018-04-30T16:37:15.324Z,0.67
2018-04-30T16:39:43.011Z,1.00
2018-04-30T16:42:10.750Z,1.37
2018-04-30T16:44:38.460Z,1.27
2018-04-30T16:47:06.141Z,1.10
2018-04-30T16:49:33.819Z,1.13
2018-04-30T16:52:01.415Z,1.00
2018-04-30T16:54:29.100Z,1.00
2018-04-30T16:56:56.743Z,1.00
2018-04-30T16:59:24.461Z,1.73
2018-04-30T17:01:52.176Z,1.50
2018-04-30T17:04:19.875Z,1.17
2018-04-30T17:06:47.472Z,1.70
2018-04-30T17:09:15.136Z,1.07
2018-04-30T17:11:42.803Z,0.90
2018-04-30T17:14:10.522Z,1.17
2018-04-30T17:16:38.197Z,0.40
2018-04-30T17:19:05.848Z,1.07
2018-04-30T17:21:33.509Z,0.77
2018-04-30T17:24:01.206Z,0.90
2018-04-30T17:26:28.836Z,0.87
2018-04-30T17:28:56.533Z,0.80
2018-04-30T17:31:24.143Z,0.80
2018-04-30T17:33:52.130Z,1.07
2018-04-30T17:36:19.863Z,1.10
2018-04-30T17:38:47.461Z,1.20
2018-04-30T17:41:15.253Z,0.90
2018-04-30T17:43:43.457Z,1.07
2018-04-30T17:46:11.152Z,0.60
2018-04-30T17:48:39.080Z,0.80
2018-04-30T17:51:06.727Z,0.80
2018-04-30T17:53:34.364Z,2.57
2018-04-30T17:56:02.019Z,0.60
2018-04-30T17:58:29.623Z,0.90
2018-04-30T18:00:57.262Z,1.27
2018-04-30T18:03:24.884Z,0.80
2018-04-30T18:05:52.541Z,0.70
2018-04-30T18:08:20.248Z,0.90
2018-04-30T18:10:47.944Z,0.70
2018-04-30T18:13:15.611Z,0.90
2018-04-30T18:15:43.270Z,3.90
2018-04-30T18:18:11.002Z,1.30
2018-04-30T18:20:38.963Z,1.47
2018-04-30T18:23:06.667Z,1.90
2018-04-30T18:25:34.283Z,1.90
2018-04-30T18:28:02.873Z,1.33
2018-04-30T18:30:30.524Z,0.63
2018-04-30T18:32:58.845Z,0.77
2018-04-30T18:35:26.504Z,0.73
2018-04-30T18:37:54.123Z,0.90
2018-04-30T18:40:21.795Z,0.87
2018-04-30T18:42:49.503Z,4.27
2018-04-30T18:45:17.108Z,2.10
2018-04-30T18:47:44.744Z,1.20
2018-04-30T18:50:12.424Z,2.13
2018-04-30T18:52:40.022Z,1.27
2018-04-30T18:55:07.712Z,0.87
2018-04-30T18:57:35.395Z,0.80
2018-04-30T19:00:03.010Z,0.97
2018-04-30T19:02:30.713Z,0.83
2018-04-30T19:04:58.379Z,0.70
2018-04-30T19:07:26.073Z,1.07
2018-04-30T19:09:53.767Z,1.10
2018-04-30T19:12:21.564Z,0.60
2018-04-30T19:14:49.243Z,0.97
2018-04-30T19:17:17.779Z,1.00
2018-04-30T19:19:45.469Z,1.00
2018-04-30T19:22:13.173Z,1.00
2018-04-30T19:24:42.105Z,0.87
2018-04-30T19:27:09.868Z,1.17
2018-04-30T19:29:37.495Z,1.00
2018-04-30T19:32:05.203Z,1.50
2018-04-30T19:34:34.005Z,0.70
2018-04-30T19:37:01.628Z,0.90
2018-04-30T19:39:29.337Z,1.60
2018-04-30T19:41:57.043Z,1.00
2018-04-30T19:44:24.730Z,0.57
2018-04-30T19:46:52.533Z,1.00
2018-04-30T19:49:20.229Z,0.67
2018-04-30T19:51:47.891Z,0.70
2018-04-30T19:54:15.946Z,1.13
2018-04-30T19:56:43.633Z,1.23
2018-04-30T19:59:11.348Z,1.00
2018-04-30T20:01:39.049Z,1.50
2018-04-30T20:04:06.710Z,0.90
2018-04-30T20:06:34.450Z,1.10
2018-04-30T20:09:02.120Z,0.50
2018-04-30T20:11:29.814Z,1.33
2018-04-30T20:13:57.520Z,1.23
2018-04-30T20:16:25.283Z,0.80
2018-04-30T20:18:53.807Z,0.60
2018-04-30T20:21:21.615Z,0.80
2018-04-30T20:23:49.334Z,0.90
2018-04-30T20:26:16.988Z,1.00
2018-04-30T20:28:44.682Z,0.70
2018-04-30T20:31:12.396Z,1.30
2018-04-30T20:33:40.156Z,1.43
2018-04-30T20:36:07.882Z,1.20
2018-04-30T20:38:36.257Z,1.40
2018-04-30T20:41:04.024Z,1.07
2018-04-30T20:43:31.680Z,1.30
2018-04-30T20:46:00.492Z,1.10
2018-04-30T20:48:28.842Z,1.00
2018-04-30T20:50:56.531Z,1.87
2018-04-30T20:53:25.452Z,0.87
2018-04-30T20:55:53.188Z,0.90
2018-04-30T20:58:20.800Z,1.30
2018-04-30T21:00:48.469Z,0.77
2018-04-30T21:03:16.396Z,0.80
2018-04-30T21:05:44.251Z,0.93
2018-04-30T21:08:11.960Z,1.33
2018-04-30T21:10:40.589Z,1.03
2018-04-30T21:13:08.234Z,1.10
2018-04-30T21:15:35.973Z,0.80
2018-04-30T21:18:03.645Z,1.30
2018-04-30T21:20:32.014Z,1.27
2018-04-30T21:23:00.718Z,1.20
2018-04-30T21:25:28.319Z,1.10
2018-04-30T21:27:55.939Z,0.90
2018-04-30T21:30:23.622Z,1.33
2018-04-30T21:32:51.364Z,1.10
2018-04-30T21:35:19.732Z,1.07
2018-04-30T21:37:47.403Z,1.10
2018-04-30T21:40:15.081Z,0.77
2018-04-30T21:42:43.777Z,0.80
2018-04-30T21:45:11.477Z,1.03
2018-04-30T21:47:39.190Z,1.10
2018-04-30T21:50:06.850Z,0.90
2018-04-30T21:52:34.549Z,0.90
2018-04-30T21:55:02.381Z,1.47
2018-04-30T21:57:30.117Z,1.20
2018-04-30T21:59:58.017Z,1.70
2018-04-30T22:02:25.724Z,1.17
2018-04-30T22:04:53.847Z,1.20
2018-04-30T22:07:21.549Z,1.10
2018-04-30T22:09:49.269Z,1.70
2018-04-30T22:12:18.390Z,1.13
2018-04-30T22:14:46.061Z,1.10
2018-04-30T22:17:13.782Z,1.40
2018-04-30T22:19:41.395Z,1.10
2018-04-30T22:22:09.091Z,1.30
2018-04-30T22:24:36.738Z,1.23
2018-04-30T22:27:04.355Z,1.17
2018-04-30T22:29:32.013Z,0.93
2018-04-30T22:31:59.919Z,1.70
2018-04-30T22:34:27.605Z,1.33
2018-04-30T22:36:55.294Z,1.00
2018-04-30T22:39:22.960Z,1.63
2018-04-30T22:41:51.425Z,1.47
2018-04-30T22:44:19.102Z,1.73
2018-04-30T22:46:46.738Z,0.70
2018-04-30T22:49:14.821Z,1.80
2018-04-30T22:51:42.416Z,1.30
2018-04-30T22:54:10.359Z,0.97
2018-04-30T22:56:37.944Z,1.60
2018-04-30T22:59:06.010Z,1.20
2018-04-30T23:01:34.039Z,1.30
2018-04-30T23:04:01.740Z,0.80
2018-04-30T23:06:29.425Z,1.03
2018-04-30T23:08:57.050Z,1.40
2018-04-30T23:11:24.733Z,0.90
2018-04-30T23:13:52.447Z,1.30
2018-04-30T23:16:20.082Z,1.23
2018-04-30T23:18:47.817Z,1.37
2018-04-30T23:21:15.603Z,0.90
2018-04-30T23:23:43.209Z,1.13
2018-04-30T23:26:11.185Z,0.97
2018-04-30T23:28:39.243Z,1.90
2018-04-30T23:31:06.860Z,0.87
2018-04-30T23:33:35.597Z,1.40
2018-04-30T23:36:03.234Z,1.53
2018-04-30T23:38:31.735Z,1.03
2018-04-30T23:40:59.484Z,1.50
2018-04-30T23:43:27.068Z,1.30
2018-04-30T23:45:54.727Z,1.13
2018-04-30T23:48:22.343Z,2.00
2018-04-30T23:50:50.041Z,1.30
2018-04-30T23:53:18.038Z,1.37
2018-04-30T23:55:45.678Z,1.37
2018-04-30T23:58:13.278Z,1.00
